createdAt,value
2023-02-13T00:00:23.760Z,100.00
2023-02-13T00:02:51.076Z,100.00
2023-02-13T00:05:17.615Z,100.00
2023-02-13T00:07:44.169Z,100.00
2023-02-13T00:10:11.315Z,100.00
2023-02-13T00:12:37.964Z,100.00
2023-02-13T00:15:05.050Z,100.00
2023-02-13T00:17:32.195Z,100.00
2023-02-13T00:19:59.286Z,100.00
2023-02-13T00:22:27.185Z,100.00
2023-02-13T00:24:53.848Z,100.00
2023-02-13T00:27:20.443Z,100.00
2023-02-13T00:29:47.218Z,100.00
2023-02-13T00:32:14.870Z,100.00
2023-02-13T00:34:44.180Z,100.00
2023-02-13T00:37:10.970Z,100.00
2023-02-13T00:39:37.505Z,100.00
2023-02-13T00:42:04.406Z,100.00
2023-02-13T00:44:31.947Z,100.00
2023-02-13T00:46:58.591Z,100.00
2023-02-13T00:49:25.664Z,100.00
2023-02-13T00:51:52.164Z,100.00
2023-02-13T00:54:19.829Z,100.00
2023-02-13T00:56:46.596Z,100.00
2023-02-13T00:59:15.187Z,100.00
2023-02-13T01:01:41.810Z,100.00
2023-02-13T01:04:08.516Z,100.00
2023-02-13T01:06:35.199Z,100.00
2023-02-13T01:09:03.997Z,100.00
2023-02-13T01:11:30.517Z,100.00
2023-02-13T01:14:00.707Z,100.00
2023-02-13T01:16:27.646Z,100.00
2023-02-13T01:18:55.636Z,100.00
2023-02-13T01:21:25.228Z,100.00
2023-02-13T01:23:53.474Z,100.00
2023-02-13T01:26:23.512Z,100.00
2023-02-13T01:28:58.399Z,100.00
2023-02-13T01:31:26.129Z,100.00
2023-02-13T01:33:53.023Z,100.00
2023-02-13T01:36:22.234Z,100.00
2023-02-13T01:38:48.801Z,100.00
2023-02-13T01:41:15.755Z,100.00
2023-02-13T01:43:47.540Z,100.00
2023-02-13T01:46:19.322Z,100.00
2023-02-13T01:48:47.890Z,100.00
2023-02-13T01:51:23.627Z,100.00
2023-02-13T01:53:56.517Z,100.00
2023-02-13T01:56:36.402Z,100.00
2023-02-13T01:59:08.777Z,100.00
2023-02-13T02:01:36.467Z,100.00
2023-02-13T02:04:10.909Z,100.00
2023-02-13T02:06:42.523Z,100.00
2023-02-13T02:09:17.286Z,100.00
2023-02-13T02:12:03.710Z,100.00
2023-02-13T02:14:30.662Z,100.00
2023-02-13T02:16:57.685Z,100.00
2023-02-13T02:19:44.618Z,100.00
2023-02-13T02:22:19.925Z,100.00
2023-02-13T02:25:04.897Z,100.00
2023-02-13T02:28:09.771Z,100.00
2023-02-13T02:31:18.372Z,100.00
2023-02-13T02:34:11.474Z,100.00
2023-02-13T02:37:05.438Z,100.00
2023-02-13T02:39:53.676Z,100.00
2023-02-13T02:42:39.781Z,100.00
2023-02-13T02:45:19.651Z,100.00
2023-02-13T02:48:39.710Z,100.00
2023-02-13T02:51:46.479Z,100.00
2023-02-13T02:54:43.625Z,100.00
2023-02-13T02:57:15.653Z,100.00
2023-02-13T03:00:04.685Z,100.00
2023-02-13T03:02:54.089Z,100.00
2023-02-13T03:06:05.013Z,100.00
2023-02-13T03:08:50.325Z,100.00
2023-02-13T03:11:49.133Z,100.00
2023-02-13T03:14:20.935Z,100.00
2023-02-13T03:17:07.369Z,100.00
2023-02-13T03:20:21.797Z,100.00
2023-02-13T03:23:15.451Z,100.00
2023-02-13T03:26:11.312Z,100.00
2023-02-13T03:29:02.798Z,100.00
2023-02-13T03:31:40.461Z,100.00
2023-02-13T03:34:10.753Z,100.00
2023-02-13T03:37:02.110Z,100.00
2023-02-13T03:40:03.011Z,100.00
2023-02-13T03:42:35.582Z,100.00
2023-02-13T03:45:36.817Z,100.00
2023-02-13T03:48:09.932Z,100.00
2023-02-13T03:50:41.535Z,100.00
2023-02-13T03:53:14.598Z,100.00
2023-02-13T03:56:04.768Z,100.00
2023-02-13T03:58:54.611Z,100.00
2023-02-13T04:01:26.353Z,100.00
2023-02-13T04:04:01.259Z,100.00
2023-02-13T04:06:33.132Z,100.00
2023-02-13T04:08:59.810Z,100.00
2023-02-13T04:11:56.235Z,100.00
2023-02-13T04:14:51.563Z,100.00
2023-02-13T04:17:24.462Z,100.00
2023-02-13T04:19:53.492Z,100.00
2023-02-13T04:22:20.775Z,100.00
2023-02-13T04:24:47.686Z,100.00
2023-02-13T04:27:16.683Z,100.00
2023-02-13T04:29:43.475Z,100.00
2023-02-13T04:32:12.791Z,100.00
2023-02-13T04:34:40.121Z,100.00
2023-02-13T04:37:06.620Z,100.00
2023-02-13T04:39:33.093Z,100.00
2023-02-13T04:41:59.662Z,100.00
2023-02-13T04:44:26.247Z,100.00
2023-02-13T04:46:52.889Z,100.00
2023-02-13T04:49:19.415Z,100.00
2023-02-13T04:51:45.904Z,100.00
2023-02-13T04:54:12.494Z,100.00
2023-02-13T04:56:39.342Z,100.00
2023-02-13T04:59:05.895Z,100.00
2023-02-13T05:01:32.616Z,100.00
2023-02-13T05:04:00.551Z,100.00
2023-02-13T05:06:27.096Z,100.00
2023-02-13T05:08:53.824Z,100.00
2023-02-13T05:11:20.399Z,100.00
2023-02-13T05:13:47.044Z,100.00
2023-02-13T05:16:13.611Z,100.00
2023-02-13T05:18:40.145Z,100.00
2023-02-13T05:21:25.618Z,100.00
2023-02-13T05:23:52.120Z,100.00
2023-02-13T05:26:18.636Z,100.00
2023-02-13T05:29:05.844Z,100.00
2023-02-13T05:31:33.377Z,100.00
2023-02-13T05:34:00.036Z,100.00
2023-02-13T05:36:26.634Z,100.00
2023-02-13T05:38:53.474Z,100.00
2023-02-13T05:41:20.034Z,100.00
2023-02-13T05:43:46.495Z,100.00
2023-02-13T05:46:13.083Z,100.00
2023-02-13T05:48:39.639Z,100.00
2023-02-13T05:51:07.496Z,100.00
2023-02-13T05:53:35.484Z,100.00
2023-02-13T05:56:02.803Z,100.00
2023-02-13T05:58:29.909Z,100.00
2023-02-13T06:00:58.868Z,100.00
2023-02-13T06:03:26.995Z,100.00
2023-02-13T06:05:54.645Z,100.00
2023-02-13T06:08:22.160Z,100.00
2023-02-13T06:10:49.410Z,100.00
2023-02-13T06:13:16.597Z,100.00
2023-02-13T06:15:43.409Z,100.00
2023-02-13T06:18:10.384Z,100.00
2023-02-13T06:20:37.075Z,100.00
2023-02-13T06:23:04.053Z,100.00
2023-02-13T06:25:30.818Z,100.00
2023-02-13T06:27:57.394Z,100.00
2023-02-13T06:30:24.033Z,100.00
2023-02-13T06:32:50.529Z,100.00
2023-02-13T06:35:17.177Z,100.00
2023-02-13T06:37:44.022Z,100.00
2023-02-13T06:40:11.957Z,100.00
2023-02-13T06:42:38.500Z,100.00
2023-02-13T06:45:05.565Z,100.00
2023-02-13T06:47:32.109Z,100.00
2023-02-13T06:49:58.740Z,100.00
2023-02-13T06:52:25.345Z,100.00
2023-02-13T06:54:51.817Z,100.00
2023-02-13T06:57:18.467Z,100.00
2023-02-13T06:59:45.065Z,100.00
2023-02-13T07:02:13.149Z,100.00
2023-02-13T07:04:40.564Z,100.00
2023-02-13T07:07:07.164Z,100.00
2023-02-13T07:09:33.882Z,100.00
2023-02-13T07:12:05.081Z,100.00
2023-02-13T07:14:31.752Z,100.00
2023-02-13T07:16:58.984Z,100.00
2023-02-13T07:19:25.641Z,100.00
2023-02-13T07:21:52.233Z,100.00
2023-02-13T07:24:18.744Z,100.00
2023-02-13T07:26:45.292Z,100.00
2023-02-13T07:29:12.481Z,100.00
2023-02-13T07:31:40.090Z,100.00
2023-02-13T07:34:07.307Z,100.00
2023-02-13T07:36:34.297Z,100.00
2023-02-13T07:39:00.809Z,100.00
2023-02-13T07:41:27.327Z,100.00
2023-02-13T07:43:54.980Z,100.00
2023-02-13T07:46:21.555Z,100.00
2023-02-13T07:48:48.486Z,100.00
2023-02-13T07:51:15.946Z,100.00
2023-02-13T07:53:42.469Z,100.00
2023-02-13T07:56:10.252Z,100.00
2023-02-13T07:58:40.061Z,99.08
2023-02-13T08:01:08.474Z,99.03
2023-02-13T08:03:35.452Z,98.74
2023-02-13T08:06:02.658Z,99.35
2023-02-13T08:08:29.503Z,98.88
2023-02-13T08:11:15.330Z,98.94
2023-02-13T08:13:43.591Z,99.09
2023-02-13T08:16:10.230Z,98.52
2023-02-13T08:18:36.853Z,99.27
2023-02-13T08:21:03.950Z,99.77
2023-02-13T08:23:30.858Z,99.20
2023-02-13T08:26:01.396Z,99.60
2023-02-13T08:28:31.479Z,99.20
2023-02-13T08:30:58.528Z,99.52
2023-02-13T08:33:25.336Z,98.33
2023-02-13T08:35:52.044Z,99.26
2023-02-13T08:38:21.449Z,98.59
2023-02-13T08:40:48.099Z,98.68
2023-02-13T08:43:14.785Z,98.49
2023-02-13T08:45:41.929Z,97.58
2023-02-13T08:48:08.993Z,98.23
2023-02-13T08:50:37.053Z,98.39
2023-02-13T08:53:04.944Z,98.35
2023-02-13T08:55:33.610Z,98.18
2023-02-13T08:58:02.369Z,97.87
2023-02-13T09:00:29.593Z,97.08
2023-02-13T09:03:00.781Z,97.28
2023-02-13T09:05:27.632Z,96.59
2023-02-13T09:07:54.136Z,96.85
2023-02-13T09:10:20.877Z,96.47
2023-02-13T09:12:54.446Z,96.69
2023-02-13T09:15:21.042Z,95.92
2023-02-13T09:17:47.702Z,96.25
2023-02-13T09:20:14.687Z,96.31
2023-02-13T09:22:41.733Z,96.02
2023-02-13T09:25:09.332Z,96.57
2023-02-13T09:27:36.846Z,95.42
2023-02-13T09:30:03.506Z,96.11
2023-02-13T09:32:30.139Z,96.60
2023-02-13T09:34:56.847Z,96.12
2023-02-13T09:37:24.194Z,95.68
2023-02-13T09:39:51.224Z,95.58
2023-02-13T09:42:25.085Z,94.73
2023-02-13T09:45:00.742Z,94.69
2023-02-13T09:47:40.019Z,94.83
2023-02-13T09:50:22.346Z,94.39
2023-02-13T09:52:52.151Z,93.80
2023-02-13T09:55:24.132Z,94.14
2023-02-13T09:58:04.885Z,93.66
2023-02-13T10:00:39.905Z,94.13
2023-02-13T10:03:28.714Z,93.65
2023-02-13T10:05:58.397Z,93.06
2023-02-13T10:08:57.551Z,92.79
2023-02-13T10:12:01.217Z,93.20
2023-02-13T10:14:42.805Z,93.12
2023-02-13T10:17:20.169Z,92.38
2023-02-13T10:20:03.453Z,93.57
2023-02-13T10:22:37.161Z,93.23
2023-02-13T10:25:08.927Z,92.47
2023-02-13T10:27:40.304Z,92.81
2023-02-13T10:30:18.659Z,92.59
2023-02-13T10:33:19.526Z,92.03
2023-02-13T10:36:27.885Z,91.90
2023-02-13T10:39:02.390Z,91.47
2023-02-13T10:41:46.037Z,90.75
2023-02-13T10:44:16.232Z,91.29
2023-02-13T10:47:00.927Z,90.24
2023-02-13T10:49:56.077Z,90.71
2023-02-13T10:52:38.861Z,89.66
2023-02-13T10:55:43.296Z,89.10
2023-02-13T10:58:19.011Z,89.05
2023-02-13T11:01:07.452Z,88.18
2023-02-13T11:03:33.938Z,89.01
2023-02-13T11:06:06.384Z,87.81
2023-02-13T11:08:37.531Z,88.31
2023-02-13T11:11:04.150Z,89.31
2023-02-13T11:13:31.029Z,89.50
2023-02-13T11:16:06.379Z,89.19
2023-02-13T11:18:50.452Z,88.69
2023-02-13T11:21:22.041Z,89.63
2023-02-13T11:23:55.063Z,89.00
2023-02-13T11:26:27.582Z,89.07
2023-02-13T11:28:57.341Z,87.99
2023-02-13T11:31:30.764Z,87.01
2023-02-13T11:33:59.417Z,86.09
2023-02-13T11:36:26.039Z,86.08
2023-02-13T11:39:02.014Z,86.85
2023-02-13T11:41:29.844Z,86.32
2023-02-13T11:44:01.693Z,86.43
2023-02-13T11:46:46.173Z,87.01
2023-02-13T11:49:20.167Z,87.06
2023-02-13T11:51:49.984Z,86.28
2023-02-13T11:54:24.582Z,86.66
2023-02-13T11:57:19.985Z,85.73
2023-02-13T11:59:49.593Z,84.94
2023-02-13T12:02:20.810Z,85.53
2023-02-13T12:04:50.874Z,83.68
2023-02-13T12:07:27.655Z,83.04
2023-02-13T12:10:01.992Z,83.19
2023-02-13T12:12:56.245Z,83.28
2023-02-13T12:15:26.678Z,83.56
2023-02-13T12:18:23.594Z,83.32
2023-02-13T12:21:05.751Z,82.99
2023-02-13T12:23:46.377Z,83.14
2023-02-13T12:26:25.160Z,82.06
2023-02-13T12:29:06.978Z,81.58
2023-02-13T12:31:47.007Z,80.70
2023-02-13T12:34:38.255Z,79.62
2023-02-13T12:37:20.251Z,80.76
2023-02-13T12:40:24.698Z,80.44
2023-02-13T12:43:23.785Z,80.73
2023-02-13T12:46:14.445Z,80.74
2023-02-13T12:49:16.453Z,80.22
2023-02-13T12:51:49.214Z,78.31
2023-02-13T12:54:27.563Z,79.86
2023-02-13T12:57:24.100Z,79.01
2023-02-13T13:00:15.289Z,79.67
2023-02-13T13:03:04.385Z,79.55
2023-02-13T13:05:50.667Z,79.84
2023-02-13T13:08:46.517Z,80.08
2023-02-13T13:11:18.692Z,79.03
2023-02-13T13:14:00.976Z,77.25
2023-02-13T13:16:56.286Z,77.62
2023-02-13T13:19:45.941Z,76.07
2023-02-13T13:22:25.286Z,73.24
2023-02-13T13:24:57.972Z,74.22
2023-02-13T13:27:36.340Z,74.94
2023-02-13T13:30:13.595Z,75.11
2023-02-13T13:32:43.573Z,74.92
2023-02-13T13:35:16.998Z,76.26
2023-02-13T13:38:11.285Z,76.83
2023-02-13T13:40:54.192Z,76.37
2023-02-13T13:43:25.937Z,76.99
2023-02-13T13:46:06.921Z,76.37
2023-02-13T13:48:50.937Z,76.53
2023-02-13T13:51:19.114Z,77.53
2023-02-13T13:54:00.961Z,77.64
2023-02-13T13:56:54.192Z,77.63
2023-02-13T13:59:43.501Z,78.41
2023-02-13T14:02:18.868Z,77.76
2023-02-13T14:05:22.806Z,77.65
2023-02-13T14:07:54.819Z,77.18
2023-02-13T14:10:26.903Z,78.06
2023-02-13T14:12:56.379Z,77.59
2023-02-13T14:15:46.023Z,77.80
2023-02-13T14:18:12.814Z,77.78
2023-02-13T14:20:50.799Z,77.84
2023-02-13T14:23:42.300Z,77.85
2023-02-13T14:26:23.218Z,78.04
2023-02-13T14:28:49.673Z,77.78
2023-02-13T14:31:25.111Z,77.15
2023-02-13T14:34:23.964Z,76.69
2023-02-13T14:37:12.141Z,77.37
2023-02-13T14:39:42.193Z,76.79
2023-02-13T14:42:44.770Z,77.40
2023-02-13T14:45:24.227Z,76.71
2023-02-13T14:47:55.412Z,76.53
2023-02-13T14:50:24.880Z,77.14
2023-02-13T14:52:54.144Z,77.15
2023-02-13T14:55:33.698Z,77.56
2023-02-13T14:58:23.655Z,76.94
2023-02-13T15:01:14.179Z,76.10
2023-02-13T15:03:40.999Z,76.02
2023-02-13T15:06:15.409Z,75.13
2023-02-13T15:08:49.033Z,74.91
2023-02-13T15:11:36.366Z,73.98
2023-02-13T15:14:21.776Z,73.54
2023-02-13T15:17:02.571Z,73.03
2023-02-13T15:19:29.860Z,72.93
2023-02-13T15:22:01.007Z,72.31
2023-02-13T15:24:38.542Z,71.95
2023-02-13T15:27:07.544Z,71.89
2023-02-13T15:29:47.888Z,71.67
2023-02-13T15:32:25.531Z,71.89
2023-02-13T15:34:52.083Z,71.06
2023-02-13T15:37:28.690Z,71.02
2023-02-13T15:40:14.068Z,70.50
2023-02-13T15:42:40.688Z,70.56
2023-02-13T15:45:14.957Z,71.02
2023-02-13T15:47:44.127Z,70.89
2023-02-13T15:50:28.121Z,70.59
2023-02-13T15:52:55.082Z,71.18
2023-02-13T15:55:28.353Z,70.72
2023-02-13T15:57:57.941Z,70.69
2023-02-13T16:00:31.736Z,70.43
2023-02-13T16:03:00.246Z,70.93
2023-02-13T16:05:39.540Z,70.83
2023-02-13T16:08:38.172Z,71.01
2023-02-13T16:11:30.281Z,71.74
2023-02-13T16:14:03.913Z,72.17
2023-02-13T16:16:34.833Z,72.11
2023-02-13T16:19:02.347Z,72.83
2023-02-13T16:21:31.501Z,72.30
2023-02-13T16:24:02.248Z,72.70
2023-02-13T16:26:29.159Z,72.96
2023-02-13T16:28:56.148Z,73.73
2023-02-13T16:31:23.786Z,73.29
2023-02-13T16:33:50.592Z,73.16
2023-02-13T16:36:27.014Z,73.35
2023-02-13T16:38:53.993Z,72.82
2023-02-13T16:41:23.747Z,72.90
2023-02-13T16:44:01.138Z,73.02
2023-02-13T16:46:29.739Z,74.23
2023-02-13T16:48:57.233Z,73.84
2023-02-13T16:51:30.138Z,74.82
2023-02-13T16:54:20.861Z,75.75
2023-02-13T16:56:52.899Z,75.19
2023-02-13T16:59:47.322Z,76.12
2023-02-13T17:02:19.931Z,76.06
2023-02-13T17:04:50.921Z,76.63
2023-02-13T17:07:21.480Z,77.21
2023-02-13T17:10:00.175Z,78.10
2023-02-13T17:12:30.540Z,78.05
2023-02-13T17:14:59.677Z,77.84
2023-02-13T17:17:29.666Z,77.80
2023-02-13T17:19:57.137Z,78.65
2023-02-13T17:22:37.326Z,78.42
2023-02-13T17:25:07.837Z,78.58
2023-02-13T17:27:34.604Z,78.05
2023-02-13T17:30:01.297Z,78.74
2023-02-13T17:32:28.329Z,78.56
2023-02-13T17:34:54.911Z,79.64
2023-02-13T17:40:25.857Z,79.27
2023-02-13T17:42:55.390Z,79.78
2023-02-13T17:45:25.387Z,80.03
2023-02-13T17:47:51.988Z,79.99
2023-02-13T17:50:18.986Z,79.71
2023-02-13T17:52:48.927Z,79.51
2023-02-13T17:55:22.767Z,79.72
2023-02-13T17:57:49.946Z,78.97
2023-02-13T18:00:17.743Z,78.79
2023-02-13T18:02:44.404Z,79.05
2023-02-13T18:05:11.562Z,78.56
2023-02-13T18:07:39.474Z,78.59
2023-02-13T18:10:10.884Z,79.37
2023-02-13T18:12:38.964Z,78.59
2023-02-13T18:15:06.002Z,79.30
2023-02-13T18:17:32.608Z,79.40
2023-02-13T18:19:59.251Z,79.82
2023-02-13T18:22:25.803Z,79.14
2023-02-13T18:24:52.397Z,79.69
2023-02-13T18:27:19.424Z,79.16
2023-02-13T18:29:46.201Z,79.49
2023-02-13T18:32:14.177Z,79.62
2023-02-13T18:34:40.868Z,79.31
2023-02-13T18:37:08.664Z,79.35
2023-02-13T18:39:35.147Z,79.12
2023-02-13T18:42:01.786Z,79.17
2023-02-13T18:44:29.127Z,79.34
2023-02-13T18:46:55.911Z,79.82
2023-02-13T18:49:22.564Z,79.58
2023-02-13T18:51:49.159Z,79.42
2023-02-13T18:54:16.407Z,79.75
2023-02-13T18:56:42.983Z,79.41
2023-02-13T18:59:09.600Z,80.05
2023-02-13T19:01:36.627Z,80.22
2023-02-13T19:04:04.323Z,79.91
2023-02-13T19:06:31.631Z,79.95
2023-02-13T19:08:59.273Z,80.11
2023-02-13T19:11:27.183Z,80.06
2023-02-13T19:14:00.486Z,80.04
2023-02-13T19:16:29.564Z,80.78
2023-02-13T19:18:59.609Z,80.49
2023-02-13T19:21:28.810Z,80.97
2023-02-13T19:23:55.629Z,80.62
2023-02-13T19:26:25.020Z,80.36
2023-02-13T19:28:56.200Z,80.46
2023-02-13T19:31:25.897Z,80.60
2023-02-13T19:33:53.960Z,80.99
2023-02-13T19:36:25.786Z,81.30
2023-02-13T19:38:56.951Z,81.52
2023-02-13T19:41:24.492Z,81.38
2023-02-13T19:43:53.561Z,81.97
2023-02-13T19:46:28.223Z,81.83
2023-02-13T19:48:55.287Z,81.92
2023-02-13T19:51:28.108Z,82.37
2023-02-13T19:54:00.167Z,82.45
2023-02-13T19:56:29.063Z,83.40
2023-02-13T19:58:56.011Z,83.62
2023-02-13T20:01:24.648Z,83.79
2023-02-13T20:03:51.595Z,84.50
2023-02-13T20:06:22.125Z,84.53
2023-02-13T20:08:49.928Z,84.83
2023-02-13T20:11:18.008Z,84.85
2023-02-13T20:13:44.711Z,84.68
2023-02-13T20:16:15.117Z,85.28
2023-02-13T20:18:42.073Z,85.83
2023-02-13T20:21:11.832Z,85.79
2023-02-13T20:23:38.837Z,86.28
2023-02-13T20:26:15.137Z,86.76
2023-02-13T20:28:43.538Z,86.75
2023-02-13T20:31:12.347Z,87.25
2023-02-13T20:33:42.487Z,87.30
2023-02-13T20:36:10.363Z,87.50
2023-02-13T20:38:37.135Z,87.53
2023-02-13T20:41:12.260Z,88.40
2023-02-13T20:43:39.364Z,88.64
2023-02-13T20:46:07.130Z,89.05
2023-02-13T20:48:36.721Z,89.20
2023-02-13T20:51:05.589Z,88.99
2023-02-13T20:53:32.625Z,89.26
2023-02-13T20:56:11.030Z,89.23
2023-02-13T20:58:38.314Z,89.23
2023-02-13T21:01:12.065Z,89.50
2023-02-13T21:03:38.834Z,89.99
2023-02-13T21:06:08.937Z,90.14
2023-02-13T21:08:37.055Z,90.13
2023-02-13T21:11:05.344Z,89.90
2023-02-13T21:13:35.513Z,89.63
2023-02-13T21:16:06.430Z,90.21
2023-02-13T21:18:33.453Z,90.05
2023-02-13T21:21:00.432Z,90.02
2023-02-13T21:23:27.303Z,90.29
2023-02-13T21:25:53.788Z,90.88
2023-02-13T21:28:20.526Z,90.56
2023-02-13T21:30:47.000Z,90.56
2023-02-13T21:33:13.499Z,90.76
2023-02-13T21:35:39.972Z,91.26
2023-02-13T21:38:06.633Z,90.88
2023-02-13T21:40:33.075Z,90.95
2023-02-13T21:42:59.658Z,91.43
2023-02-13T21:45:26.186Z,91.73
2023-02-13T21:47:56.651Z,91.67
2023-02-13T21:50:24.310Z,92.16
2023-02-13T21:52:50.784Z,92.37
2023-02-13T21:55:17.249Z,92.82
2023-02-13T21:57:44.792Z,92.51
2023-02-13T22:00:12.081Z,92.75
2023-02-13T22:02:41.560Z,93.13
2023-02-13T22:05:08.410Z,93.45
2023-02-13T22:07:54.944Z,93.07
2023-02-13T22:10:21.592Z,93.80
2023-02-13T22:12:51.837Z,93.58
2023-02-13T22:15:18.767Z,94.55
2023-02-13T22:17:45.393Z,94.99
2023-02-13T22:20:12.891Z,95.04
2023-02-13T22:22:39.609Z,94.91
2023-02-13T22:25:06.520Z,94.78
2023-02-13T22:27:32.992Z,94.86
2023-02-13T22:29:59.537Z,95.52
2023-02-13T22:32:26.088Z,95.46
2023-02-13T22:34:52.524Z,95.23
2023-02-13T22:37:18.983Z,94.91
2023-02-13T22:39:45.504Z,94.94
2023-02-13T22:42:12.001Z,94.86
2023-02-13T22:44:39.007Z,95.38
2023-02-13T22:47:07.279Z,95.02
2023-02-13T22:49:35.500Z,95.60
2023-02-13T22:52:02.088Z,95.50
2023-02-13T22:54:28.895Z,95.85
2023-02-13T22:56:56.422Z,95.34
2023-02-13T22:59:23.055Z,95.38
2023-02-13T23:01:49.575Z,94.92
2023-02-13T23:04:16.529Z,95.53
2023-02-13T23:06:43.364Z,95.23
2023-02-13T23:09:09.920Z,94.68
2023-02-13T23:11:55.141Z,94.85
2023-02-13T23:14:25.361Z,95.02
2023-02-13T23:17:10.556Z,94.90
2023-02-13T23:19:37.089Z,94.89
2023-02-13T23:22:03.598Z,94.74
2023-02-13T23:24:30.829Z,95.03
2023-02-13T23:26:58.397Z,94.84
2023-02-13T23:29:25.355Z,95.08
2023-02-13T23:31:52.859Z,94.95
2023-02-13T23:34:19.660Z,94.76
2023-02-13T23:36:46.146Z,95.08
2023-02-13T23:39:12.858Z,95.13
2023-02-13T23:41:39.322Z,95.36
2023-02-13T23:44:05.853Z,96.00
2023-02-13T23:46:32.494Z,96.07
2023-02-13T23:48:59.141Z,95.82
2023-02-13T23:51:25.949Z,95.90
2023-02-13T23:53:55.938Z,96.34
2023-02-13T23:56:23.376Z,96.08
2023-02-13T23:58:49.836Z,96.02
